METAR Data
IDs: Format: Raw Decoded Include TAF

Data at: 0005 UTC 30 May 2020

METAR for:KAMW (Ames Muni, IA, US)
Text:KAMW 292353Z AUTO 33011G17KT 10SM CLR 22/08 A3012 RMK AO2 SLP195 T02170083 10217 20178 58004
Temperature: 21.7°C ( 71°F)
Dewpoint: 8.3°C ( 47°F) [RH = 42%]
Pressure (altimeter):30.12 inches Hg (1020.1 mb) [Sea level pressure: 1019.5 mb]
Winds:from the NNW (330 degrees) at 13 MPH (11 knots; 5.7 m/s) gusting to 20 MPH (17 knots; 8.7 m/s)
Visibility:10 or more sm (16+ km)
Ceiling:at least 12,000 feet AGL
Clouds:sky clear below 12,000 feet AGL
QC Flag:automated observation with no human augmentation